createdAt,value
2023-04-15T00:01:19.379Z,3.93
2023-04-15T00:03:47.815Z,3.96
2023-04-15T00:06:16.790Z,3.94
2023-04-15T00:08:44.190Z,3.92
2023-04-15T00:11:12.509Z,3.93
2023-04-15T00:13:40.071Z,3.94
2023-04-15T00:16:09.075Z,3.90
2023-04-15T00:18:37.422Z,3.85
2023-04-15T00:21:05.439Z,3.85
2023-04-15T00:23:34.217Z,3.86
2023-04-15T00:26:01.593Z,3.86
2023-04-15T00:28:29.517Z,3.89
2023-04-15T00:30:57.881Z,3.83
2023-04-15T00:33:25.418Z,3.77
2023-04-15T00:35:53.662Z,3.75
2023-04-15T00:38:21.060Z,3.80
2023-04-15T00:40:50.162Z,3.82
2023-04-15T00:43:17.625Z,3.79
2023-04-15T00:45:47.104Z,3.73
2023-04-15T00:48:15.477Z,3.74
2023-04-15T00:50:42.875Z,3.69
2023-04-15T00:53:10.333Z,3.65
2023-04-15T00:55:39.194Z,3.68
2023-04-15T00:58:07.950Z,3.71
2023-04-15T01:00:35.913Z,3.74
2023-04-15T01:03:03.596Z,3.73
2023-04-15T01:05:31.887Z,3.75
2023-04-15T01:07:59.495Z,3.70
2023-04-15T01:10:27.334Z,3.68
2023-04-15T01:12:54.948Z,3.70
2023-04-15T01:15:25.038Z,3.75
2023-04-15T01:17:52.818Z,3.72
2023-04-15T01:20:20.584Z,3.69
2023-04-15T01:22:48.839Z,3.68
2023-04-15T01:25:19.432Z,3.66
2023-04-15T01:27:48.440Z,3.53
2023-04-15T01:30:17.339Z,3.47
2023-04-15T01:32:44.709Z,3.45
2023-04-15T01:35:30.950Z,3.47
2023-04-15T01:38:02.391Z,3.48
2023-04-15T01:40:29.945Z,3.43
2023-04-15T01:43:02.214Z,3.40
2023-04-15T01:45:31.033Z,3.35
2023-04-15T01:47:59.780Z,3.30
2023-04-15T01:50:28.491Z,3.21
2023-04-15T01:52:57.191Z,3.19
2023-04-15T01:55:26.143Z,3.09
2023-04-15T01:57:54.817Z,3.04
2023-04-15T02:00:24.915Z,3.00
2023-04-15T02:02:54.609Z,2.93
2023-04-15T02:05:23.424Z,2.91
2023-04-15T02:07:52.333Z,2.85
2023-04-15T02:10:20.961Z,2.86
2023-04-15T02:12:49.676Z,2.85
2023-04-15T02:15:18.372Z,2.82
2023-04-15T02:17:52.670Z,2.81
2023-04-15T02:20:21.655Z,2.76
2023-04-15T02:22:50.360Z,2.69
2023-04-15T02:25:20.193Z,2.67
2023-04-15T02:27:48.852Z,2.62
2023-04-15T02:30:19.182Z,2.54
2023-04-15T02:32:49.021Z,2.43
2023-04-15T02:35:19.825Z,2.33
2023-04-15T02:37:48.455Z,2.31
2023-04-15T02:40:17.635Z,2.30
2023-04-15T02:42:47.528Z,2.30
2023-04-15T02:45:20.372Z,2.29
2023-04-15T02:47:50.806Z,2.30
2023-04-15T02:50:19.923Z,2.29
2023-04-15T02:52:48.695Z,2.28
2023-04-15T02:55:18.015Z,2.24
2023-04-15T02:57:46.624Z,2.21
2023-04-15T03:00:16.173Z,2.22
2023-04-15T03:02:52.433Z,2.22
2023-04-15T03:05:21.255Z,2.23
2023-04-15T03:07:53.138Z,2.21
2023-04-15T03:10:22.532Z,2.16
2023-04-15T03:12:51.234Z,2.17
2023-04-15T03:15:23.033Z,2.15
2023-04-15T03:17:55.601Z,2.16
2023-04-15T03:20:24.728Z,2.14
2023-04-15T03:22:53.584Z,2.16
2023-04-15T03:25:23.893Z,2.19
2023-04-15T03:27:53.825Z,2.15
2023-04-15T03:30:22.522Z,2.14
2023-04-15T03:32:51.604Z,2.14
2023-04-15T03:35:21.467Z,2.13
2023-04-15T03:37:50.150Z,2.11
2023-04-15T03:40:19.025Z,2.06
2023-04-15T03:42:47.600Z,1.99
2023-04-15T03:45:16.471Z,2.00
2023-04-15T03:47:45.222Z,2.01
2023-04-15T03:50:13.872Z,2.01
2023-04-15T03:52:44.231Z,2.02
2023-04-15T03:55:13.327Z,2.04
2023-04-15T03:57:42.070Z,2.04
2023-04-15T04:00:11.047Z,2.04
2023-04-15T04:02:42.655Z,2.04
2023-04-15T04:05:11.508Z,2.02
2023-04-15T04:07:40.680Z,2.01
2023-04-15T04:10:11.295Z,1.97
2023-04-15T04:12:40.087Z,1.95
2023-04-15T04:15:09.335Z,1.87
2023-04-15T04:17:38.090Z,1.78
2023-04-15T04:20:08.155Z,1.76
2023-04-15T04:22:38.562Z,1.69
2023-04-15T04:25:08.576Z,1.69
2023-04-15T04:27:38.825Z,1.65
2023-04-15T04:30:08.583Z,1.51
2023-04-15T04:32:37.292Z,1.56
2023-04-15T04:35:07.074Z,1.53
2023-04-15T04:37:35.714Z,1.51
2023-04-15T04:40:05.193Z,1.53
2023-04-15T04:42:33.835Z,1.51
2023-04-15T04:45:04.231Z,1.50
2023-04-15T04:47:32.862Z,1.47
2023-04-15T04:50:01.485Z,1.37
2023-04-15T04:52:30.132Z,1.34
2023-04-15T04:54:58.687Z,1.35
2023-04-15T04:57:27.269Z,1.36
2023-04-15T04:59:55.931Z,1.37
2023-04-15T05:02:27.414Z,1.37
2023-04-15T05:04:56.766Z,1.25
2023-04-15T05:07:25.735Z,1.21
2023-04-15T05:09:54.278Z,1.25
2023-04-15T05:12:22.828Z,1.32
2023-04-15T05:14:51.453Z,1.35
2023-04-15T05:17:20.071Z,1.42
2023-04-15T05:19:50.067Z,1.43
2023-04-15T05:22:18.646Z,1.42
2023-04-15T05:24:47.229Z,1.42
2023-04-15T05:27:15.828Z,1.43
2023-04-15T05:29:44.424Z,1.47
2023-04-15T05:32:13.014Z,1.54
2023-04-15T05:34:41.906Z,1.62
2023-04-15T05:37:11.815Z,1.64
2023-04-15T05:39:40.459Z,1.74
2023-04-15T05:42:09.157Z,1.84
2023-04-15T05:44:37.843Z,1.93
2023-04-15T05:47:07.877Z,1.99
2023-04-15T05:49:36.731Z,2.08
2023-04-15T05:52:05.764Z,2.14
2023-04-15T05:54:36.494Z,2.27
2023-04-15T05:57:08.259Z,2.37
2023-04-15T05:59:36.897Z,2.49
2023-04-15T06:02:06.312Z,2.59
2023-04-15T06:04:35.128Z,2.69
2023-04-15T06:07:04.021Z,2.84
2023-04-15T06:09:32.694Z,2.93
2023-04-15T06:12:03.047Z,3.08
2023-04-15T06:14:35.096Z,3.25
2023-04-15T06:17:04.758Z,3.44
2023-04-15T06:19:33.524Z,3.63
2023-04-15T06:22:02.572Z,3.82
2023-04-15T06:24:33.029Z,3.96
2023-04-15T06:27:03.306Z,4.14
2023-04-15T06:29:31.937Z,4.22
2023-04-15T06:32:00.622Z,4.35
2023-04-15T06:34:29.315Z,4.52
2023-04-15T06:36:57.902Z,4.62
2023-04-15T06:39:26.973Z,4.77
2023-04-15T06:41:56.689Z,4.91
2023-04-15T06:44:26.892Z,5.08
2023-04-15T06:46:55.613Z,5.18
2023-04-15T06:49:24.262Z,5.27
2023-04-15T06:51:52.884Z,5.33
2023-04-15T06:54:21.762Z,5.50
2023-04-15T06:56:51.480Z,5.63
2023-04-15T06:59:20.246Z,5.75
2023-04-15T07:01:50.644Z,5.84
2023-04-15T07:04:19.441Z,6.00
2023-04-15T07:06:48.086Z,6.14
2023-04-15T07:09:16.781Z,6.29
2023-04-15T07:11:45.648Z,6.49
2023-04-15T07:14:14.174Z,6.70
2023-04-15T07:16:43.052Z,6.91
2023-04-15T07:19:13.106Z,7.03
2023-04-15T07:21:42.261Z,7.15
2023-04-15T07:24:11.097Z,7.12
2023-04-15T07:26:40.453Z,7.38
2023-04-15T07:29:09.202Z,7.67
2023-04-15T07:31:42.826Z,7.83
2023-04-15T07:34:12.881Z,8.13
2023-04-15T07:36:41.659Z,7.96
2023-04-15T07:39:10.457Z,8.26
2023-04-15T07:41:38.947Z,8.63
2023-04-15T07:44:07.695Z,9.00
2023-04-15T07:46:37.288Z,9.35
2023-04-15T07:49:06.000Z,9.30
2023-04-15T07:51:35.941Z,9.50
2023-04-15T07:54:04.545Z,9.27
2023-04-15T07:56:33.202Z,9.14
2023-04-15T07:59:06.457Z,9.49
2023-04-15T08:01:35.676Z,9.91
2023-04-15T08:04:04.732Z,10.24
2023-04-15T08:06:34.223Z,10.42
2023-04-15T08:09:04.555Z,10.86
2023-04-15T08:11:33.668Z,11.18
2023-04-15T08:14:02.397Z,11.27
2023-04-15T08:16:31.105Z,11.06
2023-04-15T08:19:00.195Z,11.12
2023-04-15T08:21:30.931Z,10.88
2023-04-15T08:24:00.321Z,11.16
2023-04-15T08:26:30.281Z,11.33
2023-04-15T08:28:58.900Z,11.76
2023-04-15T08:31:30.002Z,11.35
2023-04-15T08:33:59.303Z,11.20
2023-04-15T08:36:28.478Z,11.48
2023-04-15T08:38:57.116Z,11.84
2023-04-15T08:41:27.130Z,12.47
2023-04-15T08:44:01.321Z,12.88
2023-04-15T08:46:32.108Z,12.84
2023-04-15T08:49:04.415Z,13.11
2023-04-15T08:51:33.961Z,13.42
2023-04-15T08:54:04.018Z,13.73
2023-04-15T08:56:33.301Z,13.75
2023-04-15T08:59:04.039Z,13.82
2023-04-15T09:01:33.352Z,13.47
2023-04-15T09:04:03.174Z,12.79
2023-04-15T09:06:31.950Z,12.22
2023-04-15T09:09:01.237Z,12.13
2023-04-15T09:11:31.366Z,12.34
2023-04-15T09:14:00.050Z,12.38
2023-04-15T09:16:30.056Z,12.52
2023-04-15T09:18:58.729Z,12.88
2023-04-15T09:21:27.755Z,13.26
2023-04-15T09:23:58.104Z,13.73
2023-04-15T09:26:34.195Z,14.40
2023-04-15T09:29:06.577Z,14.90
2023-04-15T09:31:37.050Z,15.23
2023-04-15T09:34:06.924Z,14.94
2023-04-15T09:36:53.521Z,15.20
2023-04-15T09:39:22.509Z,15.71
2023-04-15T09:42:07.232Z,16.07
2023-04-15T09:44:36.685Z,16.36
2023-04-15T09:47:06.703Z,15.89
2023-04-15T09:49:35.448Z,15.60
2023-04-15T09:52:06.326Z,15.40
2023-04-15T09:54:37.091Z,15.71
2023-04-15T09:57:07.202Z,15.62
2023-04-15T09:59:36.289Z,15.20
2023-04-15T10:02:07.492Z,15.46
2023-04-15T10:04:40.743Z,15.65
2023-04-15T10:07:10.242Z,15.13
2023-04-15T10:09:39.542Z,14.78
2023-04-15T10:12:09.174Z,14.45
2023-04-15T10:14:40.294Z,15.02
2023-04-15T10:17:12.298Z,15.25
2023-04-15T10:19:41.897Z,15.36
2023-04-15T10:22:10.713Z,14.84
2023-04-15T10:24:41.009Z,14.83
2023-04-15T10:27:10.985Z,14.89
2023-04-15T10:29:40.040Z,15.07
2023-04-15T10:32:11.380Z,15.34
2023-04-15T10:34:40.938Z,15.78
2023-04-15T10:37:11.654Z,16.03
2023-04-15T10:39:42.946Z,15.92
2023-04-15T10:42:12.772Z,15.43
2023-04-15T10:44:43.337Z,15.38
2023-04-15T10:47:15.490Z,15.46
2023-04-15T10:49:46.182Z,15.82
2023-04-15T10:52:16.868Z,15.79
2023-04-15T10:54:45.713Z,15.68
2023-04-15T10:57:16.982Z,15.61
2023-04-15T11:00:11.230Z,15.66
2023-04-15T11:02:47.014Z,15.91
2023-04-15T11:05:16.842Z,16.12
2023-04-15T11:07:53.796Z,15.97
2023-04-15T11:10:53.237Z,15.36
2023-04-15T11:13:31.313Z,15.00
2023-04-15T11:16:03.492Z,15.30
2023-04-15T11:18:35.729Z,15.26
2023-04-15T11:21:06.622Z,15.06
2023-04-15T11:23:38.581Z,14.84
2023-04-15T11:26:09.860Z,14.62
2023-04-15T11:28:41.420Z,14.68
2023-04-15T11:31:12.227Z,14.63
2023-04-15T11:33:56.554Z,14.54
2023-04-15T11:36:27.209Z,14.21
2023-04-15T11:38:56.206Z,14.16
2023-04-15T11:41:25.107Z,14.44
2023-04-15T11:43:53.818Z,14.47
2023-04-15T11:46:30.032Z,14.52
2023-04-15T11:49:00.353Z,14.61
2023-04-15T11:51:33.066Z,14.69
2023-04-15T11:54:00.852Z,14.72
2023-04-15T11:56:28.330Z,14.85
2023-04-15T11:58:57.222Z,14.70
2023-04-15T12:01:31.732Z,14.60
2023-04-15T12:04:01.561Z,14.52
2023-04-15T12:06:34.848Z,14.52
2023-04-15T12:09:09.258Z,14.40
2023-04-15T12:11:42.046Z,14.34
2023-04-15T12:14:12.710Z,14.55
2023-04-15T12:16:48.271Z,14.70
2023-04-15T12:19:22.691Z,14.72
2023-04-15T12:21:50.386Z,14.36
2023-04-15T12:24:21.289Z,14.62
2023-04-15T12:26:50.375Z,14.64
2023-04-15T12:29:18.109Z,14.11
2023-04-15T12:31:51.649Z,14.11
2023-04-15T12:34:28.407Z,14.03
2023-04-15T12:36:56.673Z,13.93
2023-04-15T12:39:24.868Z,13.48
2023-04-15T12:41:52.782Z,13.62
2023-04-15T12:44:22.770Z,13.80
2023-04-15T12:46:51.025Z,13.68
2023-04-15T12:49:20.997Z,13.56
2023-04-15T12:51:49.287Z,13.25
2023-04-15T12:54:17.504Z,13.14
2023-04-15T12:56:46.094Z,13.03
2023-04-15T12:59:13.863Z,13.01
2023-04-15T13:01:41.537Z,13.03
2023-04-15T13:04:09.538Z,12.87
2023-04-15T13:06:38.736Z,12.99
2023-04-15T13:09:06.680Z,12.72
2023-04-15T13:11:34.480Z,12.58
2023-04-15T13:14:03.144Z,12.41
2023-04-15T13:16:31.996Z,12.36
2023-04-15T13:18:59.883Z,12.16
2023-04-15T13:21:27.769Z,11.99
2023-04-15T13:23:56.675Z,11.70
2023-04-15T13:26:24.154Z,11.47
2023-04-15T13:28:51.931Z,11.32
2023-04-15T13:31:19.435Z,11.33
2023-04-15T13:33:46.911Z,11.17
2023-04-15T13:36:14.540Z,10.85
2023-04-15T13:38:42.136Z,10.89
2023-04-15T13:41:11.229Z,10.75
2023-04-15T13:43:38.682Z,10.70
2023-04-15T13:46:06.193Z,10.71
2023-04-15T13:48:33.822Z,10.63
2023-04-15T13:51:01.398Z,10.53
2023-04-15T13:53:37.744Z,10.27
2023-04-15T13:56:06.438Z,10.31
2023-04-15T13:58:35.648Z,10.45
2023-04-15T14:01:05.758Z,10.51
2023-04-15T14:03:34.978Z,10.30
2023-04-15T14:06:02.634Z,10.31
2023-04-15T14:08:30.383Z,10.20
2023-04-15T14:10:57.936Z,10.13
2023-04-15T14:13:25.564Z,10.08
2023-04-15T14:15:54.434Z,10.11
2023-04-15T14:18:21.996Z,10.26
2023-04-15T14:20:49.456Z,10.31
2023-04-15T14:23:16.911Z,10.42
2023-04-15T14:25:46.682Z,10.41
2023-04-15T14:28:15.885Z,10.45
2023-04-15T14:30:43.509Z,10.50
2023-04-15T14:33:12.637Z,10.63
2023-04-15T14:35:40.161Z,10.74
2023-04-15T14:38:10.682Z,10.81
2023-04-15T14:40:38.346Z,10.87
2023-04-15T14:43:05.827Z,10.88
2023-04-15T14:45:33.383Z,10.86
2023-04-15T14:48:01.559Z,10.89
2023-04-15T14:50:30.543Z,10.89
2023-04-15T14:52:58.540Z,10.94
2023-04-15T14:55:26.111Z,10.95
2023-04-15T14:57:53.558Z,10.99
2023-04-15T15:00:21.003Z,11.00
2023-04-15T15:02:48.533Z,11.00
2023-04-15T15:05:16.345Z,10.97
2023-04-15T15:07:45.267Z,10.89
2023-04-15T15:10:12.882Z,10.79
2023-04-15T15:12:40.309Z,10.68
2023-04-15T15:15:25.199Z,10.71
2023-04-15T15:17:56.370Z,10.67
2023-04-15T15:20:24.453Z,10.60
2023-04-15T15:22:53.380Z,10.59
2023-04-15T15:25:21.017Z,10.63
2023-04-15T15:27:48.818Z,10.58
2023-04-15T15:30:16.214Z,10.55
2023-04-15T15:32:43.900Z,10.52
2023-04-15T15:35:11.440Z,10.57
2023-04-15T15:37:38.962Z,10.56
2023-04-15T15:40:09.070Z,10.53
2023-04-15T15:42:36.457Z,10.42
2023-04-15T15:45:04.815Z,10.39
2023-04-15T15:47:32.681Z,10.42
2023-04-15T15:50:02.030Z,10.31
2023-04-15T15:52:30.786Z,10.21
2023-04-15T15:55:04.418Z,10.20
2023-04-15T15:57:36.715Z,10.08
2023-04-15T16:00:11.770Z,10.10
2023-04-15T16:03:05.061Z,10.11
2023-04-15T16:05:27.959Z,10.08
2023-04-15T16:07:55.513Z,10.07
2023-04-15T16:10:23.081Z,9.97
2023-04-15T16:12:52.001Z,9.98
2023-04-15T16:15:19.659Z,9.93
2023-04-15T16:17:47.059Z,9.88
2023-04-15T16:20:14.477Z,9.54
2023-04-15T16:22:42.043Z,9.43
2023-04-15T16:25:09.961Z,9.37
2023-04-15T16:27:50.233Z,9.33
2023-04-15T16:30:27.258Z,9.25
2023-04-15T16:32:54.980Z,9.11
2023-04-15T16:35:22.543Z,9.09
2023-04-15T16:37:50.415Z,9.07
2023-04-15T16:40:18.070Z,8.98
2023-04-15T16:42:45.593Z,8.88
2023-04-15T16:45:13.053Z,8.84
2023-04-15T16:47:41.933Z,8.77
2023-04-15T16:50:10.797Z,8.75
2023-04-15T16:52:38.296Z,8.54
2023-04-15T16:55:06.367Z,8.56
2023-04-15T16:57:50.653Z,8.47
2023-04-15T17:00:21.453Z,8.37
2023-04-15T17:02:50.589Z,8.36
2023-04-15T17:05:18.590Z,8.32
2023-04-15T17:07:46.355Z,8.35
2023-04-15T17:10:14.043Z,8.28
2023-04-15T17:12:41.520Z,8.28
2023-04-15T17:15:09.888Z,8.23
2023-04-15T17:17:37.996Z,8.08
2023-04-15T17:20:07.982Z,7.99
2023-04-15T17:22:36.003Z,7.95
2023-04-15T17:25:04.671Z,7.95
2023-04-15T17:27:38.548Z,7.88
2023-04-15T17:30:13.356Z,7.69
2023-04-15T17:33:01.604Z,7.63
2023-04-15T17:35:50.577Z,7.63
2023-04-15T17:38:38.004Z,7.66
2023-04-15T17:41:25.411Z,7.66
2023-04-15T17:44:12.819Z,7.69
2023-04-15T17:47:00.445Z,7.77
2023-04-15T17:49:47.845Z,7.76
2023-04-15T17:52:36.653Z,7.83
2023-04-15T17:55:24.331Z,7.84
2023-04-15T17:58:11.921Z,7.81
2023-04-15T18:00:59.330Z,7.79
2023-04-15T18:03:46.874Z,7.59
2023-04-15T18:06:34.552Z,7.53
2023-04-15T18:09:23.283Z,7.35
2023-04-15T18:12:10.831Z,7.39
2023-04-15T18:14:58.259Z,7.20
2023-04-15T18:17:46.015Z,7.18
2023-04-15T18:20:15.909Z,7.15
2023-04-15T18:22:45.898Z,7.04
2023-04-15T18:25:14.776Z,7.02
2023-04-15T18:27:42.516Z,7.04
2023-04-15T18:30:11.659Z,6.99
2023-04-15T18:32:39.344Z,7.00
2023-04-15T18:35:07.528Z,6.90
2023-04-15T18:37:35.316Z,6.91
2023-04-15T18:40:02.737Z,6.85
2023-04-15T18:42:31.658Z,6.84
2023-04-15T18:44:58.956Z,6.82
2023-04-15T18:47:27.572Z,6.84
2023-04-15T18:49:55.084Z,6.86
2023-04-15T18:52:22.641Z,6.91
2023-04-15T18:54:50.054Z,6.87
2023-04-15T18:57:23.645Z,6.87
2023-04-15T18:59:59.927Z,6.84
2023-04-15T19:02:27.613Z,6.87
2023-04-15T19:04:55.252Z,6.89
2023-04-15T19:07:23.182Z,6.89
2023-04-15T19:09:50.637Z,6.91
2023-04-15T19:12:18.298Z,6.85
2023-04-15T19:14:45.969Z,6.84
2023-04-15T19:17:14.881Z,6.80
2023-04-15T19:19:42.407Z,6.78
2023-04-15T19:22:09.976Z,6.75
2023-04-15T19:24:37.391Z,6.79
2023-04-15T19:27:04.870Z,6.74
2023-04-15T19:29:33.177Z,6.77
2023-04-15T19:32:00.878Z,6.74
2023-04-15T19:34:29.669Z,6.77
2023-04-15T19:36:56.867Z,6.76
2023-04-15T19:39:24.344Z,6.74
2023-04-15T19:41:55.172Z,6.73
2023-04-15T19:44:22.840Z,6.69
2023-04-15T19:46:52.788Z,6.60
2023-04-15T19:49:20.390Z,6.64
2023-04-15T19:51:52.168Z,6.56
2023-04-15T19:54:19.549Z,6.55
2023-04-15T19:56:46.894Z,6.55
2023-04-15T19:59:14.303Z,6.52
2023-04-15T20:01:42.342Z,6.50
2023-04-15T20:04:10.496Z,6.48
2023-04-15T20:06:37.976Z,6.45
2023-04-15T20:09:07.711Z,6.44
2023-04-15T20:12:44.910Z,6.42
2023-04-15T20:14:25.137Z,6.45
2023-04-15T20:16:52.669Z,6.42
2023-04-15T20:19:20.089Z,6.43
2023-04-15T20:21:47.583Z,6.37
2023-04-15T20:24:16.469Z,6.36
2023-04-15T20:26:43.788Z,6.33
2023-04-15T20:29:11.356Z,6.28
2023-04-15T20:31:38.924Z,6.35
2023-04-15T20:34:06.435Z,6.37
2023-04-15T20:36:34.307Z,6.35
2023-04-15T20:39:01.766Z,6.34
2023-04-15T20:41:30.563Z,6.35
2023-04-15T20:43:57.832Z,6.33
2023-04-15T20:46:27.309Z,6.33
2023-04-15T20:48:55.670Z,6.31
2023-04-15T20:51:23.075Z,6.39
2023-04-15T20:53:50.519Z,6.38
2023-04-15T20:56:17.897Z,6.37
2023-04-15T20:58:46.686Z,6.41
2023-04-15T21:01:14.041Z,6.37
2023-04-15T21:03:41.699Z,6.42
2023-04-15T21:06:09.295Z,6.42
2023-04-15T21:08:36.678Z,6.43
2023-04-15T21:11:04.136Z,6.43
2023-04-15T21:13:31.669Z,6.42
2023-04-15T21:16:00.604Z,6.44
2023-04-15T21:18:28.111Z,6.43
2023-04-15T21:20:59.172Z,6.49
2023-04-15T21:23:28.766Z,6.39
2023-04-15T21:25:56.652Z,6.40
2023-04-15T21:28:24.081Z,6.43
2023-04-15T21:30:51.522Z,6.49
2023-04-15T21:33:20.609Z,6.53
2023-04-15T21:35:48.205Z,6.53
2023-04-15T21:38:15.711Z,6.53
2023-04-15T21:40:43.189Z,6.52
2023-04-15T21:43:10.656Z,6.52
2023-04-15T21:45:43.527Z,6.50
2023-04-15T21:48:32.322Z,6.50
2023-04-15T21:51:00.165Z,6.50
2023-04-15T21:53:27.873Z,6.48
2023-04-15T21:55:55.454Z,6.48
2023-04-15T21:58:22.840Z,6.42
2023-04-15T22:00:51.432Z,6.40
2023-04-15T22:03:19.008Z,6.42
2023-04-15T22:05:47.976Z,6.36
2023-04-15T22:08:15.383Z,6.33
2023-04-15T22:10:42.727Z,6.38
2023-04-15T22:13:11.106Z,6.33
2023-04-15T22:15:38.785Z,6.37
2023-04-15T22:18:06.524Z,6.29
2023-04-15T22:20:34.027Z,6.28
2023-04-15T22:23:07.562Z,6.30
2023-04-15T22:25:36.965Z,6.29
2023-04-15T22:28:06.926Z,6.28
2023-04-15T22:30:38.213Z,6.28
2023-04-15T22:33:06.456Z,6.29
2023-04-15T22:35:37.384Z,6.28
2023-04-15T22:38:06.408Z,6.28
2023-04-15T22:40:33.806Z,6.31
2023-04-15T22:43:01.353Z,6.31
2023-04-15T22:45:28.721Z,6.28
2023-04-15T22:47:56.278Z,6.27
2023-04-15T22:50:23.815Z,6.27
2023-04-15T22:52:51.484Z,6.27
2023-04-15T22:55:20.703Z,6.22
2023-04-15T22:57:48.123Z,6.27
2023-04-15T23:00:15.503Z,6.28
2023-04-15T23:02:43.008Z,6.27
2023-04-15T23:05:12.436Z,6.29
2023-04-15T23:07:40.695Z,6.29
2023-04-15T23:10:09.138Z,6.31
2023-04-15T23:12:37.880Z,6.35
2023-04-15T23:15:06.197Z,6.33
2023-04-15T23:17:34.828Z,6.34
2023-04-15T23:20:02.237Z,6.38
2023-04-15T23:22:29.631Z,6.42
2023-04-15T23:24:56.990Z,6.39
2023-04-15T23:27:24.397Z,6.37
2023-04-15T23:29:53.129Z,6.35
2023-04-15T23:32:20.806Z,6.39
2023-04-15T23:34:48.279Z,6.43
2023-04-15T23:37:17.550Z,6.45
2023-04-15T23:39:45.470Z,6.46
2023-04-15T23:42:12.897Z,6.48
2023-04-15T23:44:40.368Z,6.47
2023-04-15T23:47:10.373Z,6.49
2023-04-15T23:49:37.804Z,6.52
2023-04-15T23:52:05.718Z,6.56
2023-04-15T23:54:33.250Z,6.58
2023-04-15T23:57:00.819Z,6.60
2023-04-15T23:59:28.278Z,6.61
